createdAt,value
2022-10-30T00:01:36.298Z,18.43
2022-10-30T00:04:02.828Z,18.38
2022-10-30T00:06:29.290Z,18.37
2022-10-30T00:08:56.025Z,18.40
2022-10-30T00:11:22.728Z,18.40
2022-10-30T00:13:49.280Z,18.42
2022-10-30T00:16:16.351Z,18.39
2022-10-30T00:18:43.328Z,18.40
2022-10-30T00:21:12.792Z,18.43
2022-10-30T00:23:45.048Z,18.38
2022-10-30T00:26:11.539Z,18.34
2022-10-30T00:28:38.038Z,18.45
2022-10-30T00:31:05.464Z,18.39
2022-10-30T00:33:32.129Z,18.33
2022-10-30T00:35:58.944Z,18.35
2022-10-30T00:38:25.464Z,18.41
2022-10-30T00:40:52.232Z,18.38
2022-10-30T00:43:39.508Z,18.42
2022-10-30T00:46:16.334Z,18.38
2022-10-30T00:48:45.943Z,18.42
2022-10-30T00:51:13.913Z,18.38
2022-10-30T00:53:42.089Z,18.31
2022-10-30T00:56:10.467Z,18.35
2022-10-30T00:58:42.531Z,18.30
2022-10-30T01:01:16.133Z,18.35
2022-10-30T01:03:42.762Z,18.37
2022-10-30T01:06:11.820Z,18.37
2022-10-30T01:08:38.766Z,18.42
2022-10-30T01:11:06.302Z,18.40
2022-10-30T01:13:35.904Z,18.40
2022-10-30T01:16:36.557Z,18.39
2022-10-30T01:19:24.153Z,18.39
2022-10-30T01:21:58.191Z,18.42
2022-10-30T01:24:56.694Z,18.36
2022-10-30T01:27:41.672Z,18.38
2022-10-30T01:30:49.953Z,18.33
2022-10-30T01:33:54.659Z,18.26
2022-10-30T01:36:33.430Z,18.33
2022-10-30T01:39:10.844Z,18.28
2022-10-30T01:41:37.368Z,18.38
2022-10-30T01:44:12.492Z,18.28
2022-10-30T01:46:51.150Z,18.35
2022-10-30T01:49:17.671Z,18.39
2022-10-30T01:52:02.415Z,18.43
2022-10-30T01:54:34.867Z,18.40
2022-10-30T01:57:48.168Z,18.35
2022-10-30T02:00:17.276Z,18.36
2022-10-30T02:02:44.256Z,18.30
2022-10-30T02:05:20.051Z,18.35
2022-10-30T02:07:46.597Z,18.29
2022-10-30T02:10:13.292Z,18.27
2022-10-30T02:12:39.997Z,18.31
2022-10-30T02:15:06.964Z,18.32
2022-10-30T02:17:34.330Z,18.33
2022-10-30T02:20:00.808Z,18.30
2022-10-30T02:22:27.631Z,18.31
2022-10-30T02:24:54.191Z,18.30
2022-10-30T02:27:20.701Z,18.28
2022-10-30T02:29:47.256Z,18.30
2022-10-30T02:32:13.784Z,18.34
2022-10-30T02:34:40.353Z,18.29
2022-10-30T02:37:06.839Z,18.31
2022-10-30T02:39:33.647Z,18.30
2022-10-30T02:42:02.157Z,18.27
2022-10-30T02:44:28.679Z,18.32
2022-10-30T02:46:55.161Z,18.28
2022-10-30T02:49:21.719Z,18.24
2022-10-30T02:51:48.200Z,18.27
2022-10-30T02:54:14.661Z,18.31
2022-10-30T02:56:41.171Z,18.30
2022-10-30T02:59:07.822Z,18.33
2022-10-30T03:01:34.959Z,18.31
2022-10-30T03:04:01.559Z,18.29
2022-10-30T03:06:28.672Z,18.28
2022-10-30T03:08:55.171Z,18.29
2022-10-30T03:11:21.744Z,18.24
2022-10-30T03:13:49.573Z,18.31
2022-10-30T03:16:21.711Z,18.25
2022-10-30T03:18:49.162Z,18.26
2022-10-30T03:21:18.399Z,18.31
2022-10-30T03:23:45.440Z,18.28
2022-10-30T03:26:12.051Z,18.26
2022-10-30T03:28:38.528Z,18.26
2022-10-30T03:31:13.699Z,18.26
2022-10-30T03:33:41.022Z,18.26
2022-10-30T03:36:10.239Z,18.15
2022-10-30T03:38:37.838Z,18.28
2022-10-30T03:41:04.833Z,18.19
2022-10-30T03:43:31.833Z,18.10
2022-10-30T03:45:58.700Z,18.17
2022-10-30T03:48:27.528Z,18.21
2022-10-30T03:50:56.128Z,18.21
2022-10-30T03:53:24.052Z,18.20
2022-10-30T03:55:50.754Z,18.19
2022-10-30T03:58:17.406Z,18.21
2022-10-30T04:00:44.089Z,18.19
2022-10-30T04:03:11.529Z,18.24
2022-10-30T04:05:39.285Z,18.21
2022-10-30T04:08:11.100Z,18.19
2022-10-30T04:10:37.794Z,18.13
2022-10-30T04:13:06.557Z,18.17
2022-10-30T04:15:33.716Z,18.13
2022-10-30T04:18:00.891Z,18.05
2022-10-30T04:20:28.086Z,18.12
2022-10-30T04:23:03.306Z,18.14
2022-10-30T04:25:30.653Z,18.05
2022-10-30T04:27:57.639Z,18.09
2022-10-30T04:30:27.759Z,18.09
2022-10-30T04:32:58.140Z,18.12
2022-10-30T04:35:29.591Z,18.08
2022-10-30T04:37:58.692Z,18.05
2022-10-30T04:40:26.957Z,18.09
2022-10-30T04:42:53.770Z,18.06
2022-10-30T04:45:20.566Z,18.07
2022-10-30T04:47:47.436Z,18.05
2022-10-30T04:50:14.210Z,18.09
2022-10-30T04:52:41.545Z,18.14
2022-10-30T04:55:09.606Z,18.09
2022-10-30T04:57:37.016Z,18.09
2022-10-30T05:00:08.423Z,18.00
2022-10-30T05:02:36.981Z,18.11
2022-10-30T05:05:04.592Z,18.12
2022-10-30T05:07:31.151Z,18.09
2022-10-30T05:09:57.674Z,17.95
2022-10-30T05:12:24.247Z,18.05
2022-10-30T05:14:50.833Z,18.06
2022-10-30T05:17:17.410Z,18.05
2022-10-30T05:19:44.170Z,18.05
2022-10-30T05:22:11.058Z,18.06
2022-10-30T05:24:37.628Z,18.00
2022-10-30T05:27:04.177Z,18.03
2022-10-30T05:29:30.726Z,18.00
2022-10-30T05:31:57.281Z,18.05
2022-10-30T05:34:23.763Z,17.95
2022-10-30T05:36:50.361Z,18.03
2022-10-30T05:39:16.841Z,18.04
2022-10-30T05:41:43.614Z,18.00
2022-10-30T05:44:10.182Z,18.04
2022-10-30T05:46:36.757Z,18.04
2022-10-30T05:49:03.968Z,18.02
2022-10-30T05:51:30.688Z,18.06
2022-10-30T05:53:57.188Z,18.02
2022-10-30T05:56:23.779Z,18.01
2022-10-30T05:58:50.756Z,18.02
2022-10-30T06:01:18.003Z,18.07
2022-10-30T06:03:44.983Z,17.99
2022-10-30T06:06:12.168Z,18.02
2022-10-30T06:08:38.673Z,17.94
2022-10-30T06:11:05.165Z,17.98
2022-10-30T06:13:31.754Z,17.94
2022-10-30T06:15:58.409Z,17.96
2022-10-30T06:18:24.883Z,17.97
2022-10-30T06:20:51.410Z,17.99
2022-10-30T06:23:17.924Z,17.98
2022-10-30T06:25:44.857Z,18.00
2022-10-30T06:28:13.425Z,18.00
2022-10-30T06:30:40.104Z,17.98
2022-10-30T06:33:07.308Z,17.99
2022-10-30T06:35:33.879Z,17.94
2022-10-30T06:38:00.588Z,17.97
2022-10-30T06:40:28.419Z,18.00
2022-10-30T06:42:55.223Z,17.98
2022-10-30T06:45:23.745Z,18.00
2022-10-30T06:47:50.408Z,18.01
2022-10-30T06:50:19.222Z,17.99
2022-10-30T06:52:45.961Z,18.00
2022-10-30T06:55:12.642Z,18.08
2022-10-30T06:57:39.366Z,18.07
2022-10-30T07:00:07.670Z,18.02
2022-10-30T07:02:34.861Z,18.03
2022-10-30T07:05:01.504Z,18.06
2022-10-30T07:07:28.633Z,18.10
2022-10-30T07:09:55.104Z,18.11
2022-10-30T07:12:21.687Z,18.15
2022-10-30T07:14:48.538Z,18.15
2022-10-30T07:17:15.233Z,18.19
2022-10-30T07:19:41.739Z,18.21
2022-10-30T07:22:08.439Z,18.27
2022-10-30T07:24:34.991Z,18.28
2022-10-30T07:27:01.549Z,18.27
2022-10-30T07:29:28.049Z,18.31
2022-10-30T07:32:02.748Z,18.34
2022-10-30T07:34:29.797Z,18.38
2022-10-30T07:36:56.250Z,18.34
2022-10-30T07:39:22.825Z,18.37
2022-10-30T07:41:50.676Z,18.46
2022-10-30T07:44:17.471Z,18.51
2022-10-30T07:46:44.160Z,18.62
2022-10-30T07:49:10.816Z,18.59
2022-10-30T07:51:37.300Z,18.65
2022-10-30T07:54:03.951Z,18.67
2022-10-30T07:56:30.471Z,18.72
2022-10-30T07:58:57.021Z,18.82
2022-10-30T08:01:23.708Z,18.85
2022-10-30T08:03:50.653Z,18.90
2022-10-30T08:06:20.009Z,18.93
2022-10-30T08:08:49.578Z,18.93
2022-10-30T08:11:16.086Z,18.99
2022-10-30T08:13:42.567Z,19.11
2022-10-30T08:16:09.034Z,19.16
2022-10-30T08:18:35.573Z,19.17
2022-10-30T08:21:02.146Z,19.22
2022-10-30T08:23:28.669Z,19.26
2022-10-30T08:25:57.483Z,19.35
2022-10-30T08:28:28.151Z,19.37
2022-10-30T08:30:58.694Z,19.46
2022-10-30T08:33:25.647Z,19.51
2022-10-30T08:35:54.462Z,19.55
2022-10-30T08:38:21.089Z,19.63
2022-10-30T08:40:47.665Z,19.65
2022-10-30T08:43:14.512Z,19.69
2022-10-30T08:45:41.273Z,19.73
2022-10-30T08:48:11.856Z,19.72
2022-10-30T08:50:38.411Z,19.76
2022-10-30T08:53:07.524Z,19.85
2022-10-30T08:55:35.001Z,19.79
2022-10-30T08:58:01.698Z,19.70
2022-10-30T09:00:29.219Z,19.79
2022-10-30T09:02:56.341Z,19.78
2022-10-30T09:05:23.800Z,19.75
2022-10-30T09:07:55.192Z,19.82
2022-10-30T09:10:21.978Z,19.91
2022-10-30T09:12:48.491Z,20.01
2022-10-30T09:15:15.047Z,20.10
2022-10-30T09:17:41.496Z,20.14
2022-10-30T09:20:08.437Z,20.26
2022-10-30T09:22:34.964Z,20.34
2022-10-30T09:25:01.426Z,20.31
2022-10-30T09:27:27.938Z,20.39
2022-10-30T09:29:55.110Z,20.35
2022-10-30T09:32:21.735Z,20.38
2022-10-30T09:34:48.269Z,20.35
2022-10-30T09:37:14.893Z,20.39
2022-10-30T09:39:41.345Z,20.31
2022-10-30T09:42:55.479Z,20.38
2022-10-30T09:45:34.067Z,20.40
2022-10-30T09:48:25.274Z,20.45
2022-10-30T09:51:41.319Z,20.41
2022-10-30T09:54:44.546Z,20.49
2022-10-30T09:57:21.134Z,20.58
2022-10-30T10:00:02.738Z,20.58
2022-10-30T10:02:38.065Z,20.68
2022-10-30T10:05:15.503Z,20.65
2022-10-30T10:07:47.803Z,20.68
2022-10-30T10:10:26.584Z,20.78
2022-10-30T10:13:00.348Z,20.87
2022-10-30T10:15:37.360Z,20.91
2022-10-30T10:18:12.714Z,20.98
2022-10-30T10:20:46.714Z,21.04
2022-10-30T10:23:20.271Z,21.10
2022-10-30T10:25:54.005Z,21.11
2022-10-30T10:28:47.476Z,21.12
2022-10-30T10:31:13.898Z,21.21
2022-10-30T10:34:18.751Z,21.26
2022-10-30T10:37:09.793Z,21.37
2022-10-30T10:40:33.271Z,21.44
2022-10-30T10:43:30.691Z,21.49
2022-10-30T10:46:34.059Z,21.70
2022-10-30T10:49:40.119Z,21.77
2022-10-30T10:52:17.466Z,21.87
2022-10-30T10:54:47.824Z,21.95
2022-10-30T10:57:23.689Z,21.94
2022-10-30T10:59:55.158Z,21.90
2022-10-30T11:02:40.208Z,21.84
2022-10-30T11:05:36.251Z,21.73
2022-10-30T11:08:32.854Z,21.76
2022-10-30T11:11:01.434Z,21.68
2022-10-30T11:13:31.387Z,21.66
2022-10-30T11:16:16.138Z,21.60
2022-10-30T11:18:44.575Z,21.63
2022-10-30T11:21:19.694Z,21.62
2022-10-30T11:23:48.319Z,21.65
2022-10-30T11:26:17.997Z,21.65
2022-10-30T11:29:11.428Z,21.74
2022-10-30T11:31:42.947Z,21.83
2022-10-30T11:34:18.445Z,21.78
2022-10-30T11:36:50.043Z,21.76
2022-10-30T11:39:21.895Z,21.77
2022-10-30T11:42:00.510Z,21.77
2022-10-30T11:44:35.267Z,21.67
2022-10-30T11:47:02.904Z,21.65
2022-10-30T11:49:47.680Z,21.69
2022-10-30T11:52:18.118Z,21.77
2022-10-30T11:54:54.749Z,21.82
2022-10-30T11:57:43.543Z,21.83
2022-10-30T12:00:25.771Z,21.74
2022-10-30T12:02:54.728Z,21.78
2022-10-30T12:05:27.620Z,21.81
2022-10-30T12:07:59.125Z,21.76
2022-10-30T12:10:29.444Z,21.86
2022-10-30T12:12:57.418Z,21.81
2022-10-30T12:15:27.991Z,21.96
2022-10-30T12:17:59.552Z,22.03
2022-10-30T12:20:27.535Z,22.01
2022-10-30T12:22:55.123Z,22.00
2022-10-30T12:25:27.830Z,22.02
2022-10-30T12:28:05.018Z,22.01
2022-10-30T12:30:38.048Z,22.04
2022-10-30T12:33:20.971Z,22.08
2022-10-30T12:35:47.532Z,22.01
2022-10-30T12:38:21.554Z,22.08
2022-10-30T12:41:12.594Z,22.14
2022-10-30T12:43:42.344Z,22.09
2022-10-30T12:46:18.014Z,22.15
2022-10-30T12:48:53.917Z,22.27
2022-10-30T12:51:39.022Z,22.29
2022-10-30T12:54:17.650Z,22.24
2022-10-30T12:56:49.329Z,22.33
2022-10-30T12:59:48.237Z,22.37
2022-10-30T13:02:35.966Z,22.31
2022-10-30T13:05:33.186Z,22.39
2022-10-30T13:08:13.015Z,22.42
2022-10-30T13:10:54.025Z,22.41
2022-10-30T13:13:27.238Z,22.37
2022-10-30T13:15:57.264Z,22.39
2022-10-30T13:18:31.372Z,22.31
2022-10-30T13:21:18.009Z,22.40
2022-10-30T13:23:56.918Z,22.35
2022-10-30T13:26:29.113Z,22.44
2022-10-30T13:29:07.465Z,22.58
2022-10-30T13:31:52.686Z,22.45
2022-10-30T13:34:34.786Z,22.41
2022-10-30T13:37:38.330Z,22.41
2022-10-30T13:40:14.589Z,22.43
2022-10-30T13:42:56.622Z,22.41
2022-10-30T13:45:44.735Z,22.37
2022-10-30T13:48:14.219Z,22.29
2022-10-30T13:50:49.659Z,22.38
2022-10-30T13:53:24.453Z,22.40
2022-10-30T13:55:51.787Z,22.43
2022-10-30T13:58:46.237Z,22.44
2022-10-30T14:01:12.676Z,22.46
2022-10-30T14:03:57.673Z,22.49
2022-10-30T14:06:33.694Z,22.45
2022-10-30T14:09:12.669Z,22.48
2022-10-30T14:11:39.237Z,22.57
2022-10-30T14:14:23.844Z,22.55
2022-10-30T14:17:09.606Z,22.60
2022-10-30T14:20:13.294Z,22.60
2022-10-30T14:22:40.997Z,22.46
2022-10-30T14:25:15.937Z,22.55
2022-10-30T14:27:42.773Z,22.61
2022-10-30T14:30:28.995Z,22.49
2022-10-30T14:32:55.790Z,22.50
2022-10-30T14:35:39.509Z,22.47
2022-10-30T14:38:08.701Z,22.46
2022-10-30T14:40:41.798Z,22.53
2022-10-30T14:43:32.175Z,22.49
2022-10-30T14:46:10.792Z,22.44
2022-10-30T14:48:58.169Z,22.46
2022-10-30T14:51:46.623Z,22.51
2022-10-30T14:54:24.476Z,22.47
2022-10-30T14:56:54.182Z,22.52
2022-10-30T14:59:24.877Z,22.42
2022-10-30T15:02:13.495Z,22.32
2022-10-30T15:04:45.849Z,22.21
2022-10-30T15:07:45.376Z,22.08
2022-10-30T15:10:34.787Z,22.17
2022-10-30T15:13:19.752Z,22.06
2022-10-30T15:15:57.064Z,22.14
2022-10-30T15:18:25.685Z,22.07
2022-10-30T15:21:04.698Z,22.10
2022-10-30T15:23:34.484Z,22.11
2022-10-30T15:26:20.842Z,22.00
2022-10-30T15:28:50.406Z,21.94
2022-10-30T15:31:24.649Z,21.96
2022-10-30T15:33:53.288Z,21.88
2022-10-30T15:36:23.096Z,21.93
2022-10-30T15:39:13.076Z,21.95
2022-10-30T15:42:01.890Z,21.98
2022-10-30T15:44:35.081Z,22.01
2022-10-30T15:47:04.157Z,21.95
2022-10-30T15:49:33.406Z,21.88
2022-10-30T15:52:03.564Z,21.78
2022-10-30T15:54:32.593Z,21.74
2022-10-30T15:57:36.540Z,21.72
2022-10-30T15:59:53.342Z,21.62
2022-10-30T16:02:26.768Z,-139.91
2022-10-30T16:04:54.077Z,-139.91
2022-10-30T16:07:28.676Z,21.62
2022-10-30T16:09:57.710Z,-139.91
2022-10-30T16:12:26.365Z,-139.91
2022-10-30T16:14:54.805Z,-139.91
2022-10-30T16:17:22.195Z,-139.91
2022-10-30T16:19:53.381Z,-139.91
2022-10-30T16:22:28.396Z,-139.91
2022-10-30T16:24:56.930Z,-139.91
2022-10-30T16:27:24.748Z,-139.91
2022-10-30T16:29:55.567Z,-139.91
2022-10-30T16:32:26.114Z,-139.91
2022-10-30T16:34:57.425Z,-139.91
2022-10-30T16:37:44.221Z,-139.91
2022-10-30T16:40:15.075Z,-139.91
2022-10-30T16:42:45.163Z,-139.91
2022-10-30T16:45:11.874Z,-139.91
2022-10-30T16:47:50.674Z,-139.91
2022-10-30T16:50:17.799Z,-139.91
2022-10-30T16:52:44.439Z,-139.91
2022-10-30T16:55:23.589Z,-139.91
2022-10-30T16:57:55.897Z,-139.91
2022-10-30T17:00:27.280Z,-139.91
2022-10-30T17:02:56.610Z,-139.91
2022-10-30T17:05:27.665Z,-139.91
2022-10-30T17:07:57.000Z,-139.91
2022-10-30T17:10:32.644Z,-139.91
2022-10-30T17:13:36.774Z,-139.91
2022-10-30T17:16:26.762Z,-139.91
2022-10-30T17:18:59.148Z,-139.91
2022-10-30T17:21:38.355Z,-139.91
2022-10-30T17:24:06.245Z,-139.91
2022-10-30T17:26:40.970Z,20.34
2022-10-30T17:29:37.371Z,20.37
2022-10-30T17:32:19.564Z,-139.91
2022-10-30T17:34:46.880Z,20.37
2022-10-30T17:37:13.446Z,-139.91
2022-10-30T17:39:39.966Z,20.37
2022-10-30T17:42:06.755Z,20.33
2022-10-30T17:44:35.389Z,20.33
2022-10-30T17:47:14.814Z,-139.91
2022-10-30T17:52:14.482Z,-139.91
2022-10-30T17:54:42.303Z,-139.91
2022-10-30T17:57:13.968Z,-139.91
2022-10-30T17:59:41.377Z,-139.91
2022-10-30T18:02:19.215Z,-139.91
2022-10-30T18:04:47.533Z,-139.91
2022-10-30T18:07:16.110Z,-139.91
2022-10-30T18:09:43.713Z,-139.91
2022-10-30T18:12:15.669Z,19.96
2022-10-30T18:14:43.204Z,-139.91
2022-10-30T18:17:10.638Z,-139.91
2022-10-30T18:19:37.120Z,-139.91
2022-10-30T18:22:03.677Z,-139.91
2022-10-30T18:24:30.292Z,19.79
2022-10-30T18:26:56.846Z,-139.91
2022-10-30T18:29:23.670Z,-139.91
2022-10-30T18:31:50.179Z,-139.91
2022-10-30T18:34:21.023Z,-139.91
2022-10-30T18:36:48.085Z,-139.91
2022-10-30T18:39:14.624Z,-139.91
2022-10-30T18:41:45.373Z,-139.91
2022-10-30T18:44:17.492Z,-139.91
2022-10-30T18:46:44.145Z,-139.91
2022-10-30T18:49:11.583Z,-139.91
2022-10-30T18:51:38.292Z,-139.91
2022-10-30T18:54:11.858Z,19.79
2022-10-30T18:56:38.359Z,-139.91
2022-10-30T18:59:04.893Z,-139.91
2022-10-30T19:01:34.719Z,-139.91
2022-10-30T19:04:03.180Z,-139.91
2022-10-30T19:06:30.196Z,-139.91
2022-10-30T19:08:56.767Z,-139.91
2022-10-30T19:11:25.277Z,-139.91
2022-10-30T19:13:53.785Z,-139.91
2022-10-30T19:16:21.688Z,-139.91
2022-10-30T19:18:48.745Z,19.79
2022-10-30T19:21:20.551Z,19.28
2022-10-30T19:23:48.015Z,19.45
2022-10-30T19:26:15.149Z,19.37
2022-10-30T19:28:42.119Z,19.28
2022-10-30T19:31:13.967Z,19.28
2022-10-30T19:33:40.539Z,19.27
2022-10-30T19:36:07.377Z,19.34
2022-10-30T19:38:34.102Z,19.21
2022-10-30T19:41:00.911Z,19.23
2022-10-30T19:43:27.692Z,19.16
2022-10-30T19:45:56.950Z,19.24
2022-10-30T19:48:47.767Z,19.24
2022-10-30T19:51:11.846Z,19.24
2022-10-30T19:53:39.346Z,19.24
2022-10-30T19:56:06.346Z,19.24
2022-10-30T19:58:32.822Z,19.24
2022-10-30T20:00:59.416Z,19.24
2022-10-30T20:03:25.940Z,-139.91
2022-10-30T20:05:52.496Z,-139.91
2022-10-30T20:13:24.080Z,-139.91
2022-10-30T20:17:46.955Z,19.15
2022-10-30T20:20:16.976Z,19.10
2022-10-30T20:22:43.464Z,19.05
2022-10-30T20:25:11.021Z,19.12
2022-10-30T20:27:39.114Z,19.10
2022-10-30T20:30:07.310Z,19.07
2022-10-30T20:32:34.002Z,19.11
2022-10-30T20:35:00.561Z,19.07
2022-10-30T20:37:27.348Z,19.09
2022-10-30T20:39:54.747Z,19.04
2022-10-30T20:42:24.075Z,19.08
2022-10-30T20:44:51.201Z,19.03
2022-10-30T20:47:17.761Z,18.90
2022-10-30T20:49:44.292Z,18.92
2022-10-30T20:52:10.873Z,18.92
2022-10-30T20:54:37.448Z,18.87
2022-10-30T20:57:04.064Z,18.79
2022-10-30T20:59:30.618Z,18.74
2022-10-30T21:01:57.149Z,18.70
2022-10-30T21:04:23.780Z,18.66
2022-10-30T21:06:50.290Z,18.64
2022-10-30T21:09:17.418Z,18.58
2022-10-30T21:11:43.962Z,18.62
2022-10-30T21:14:10.567Z,18.63
2022-10-30T21:16:37.141Z,18.63
2022-10-30T21:19:03.733Z,18.63
2022-10-30T21:21:30.233Z,18.73
2022-10-30T21:23:57.266Z,18.77
2022-10-30T21:26:24.701Z,18.68
2022-10-30T21:28:51.402Z,18.74
2022-10-30T21:31:18.889Z,18.73
2022-10-30T21:33:45.427Z,18.73
2022-10-30T21:36:15.543Z,18.72
2022-10-30T21:38:43.258Z,18.71
2022-10-30T21:41:15.478Z,18.70
2022-10-30T21:43:42.814Z,18.72
2022-10-30T21:46:12.505Z,18.71
2022-10-30T21:48:39.308Z,18.69
2022-10-30T21:51:20.129Z,18.78
2022-10-30T21:53:47.491Z,18.77
2022-10-30T21:56:25.581Z,18.82
2022-10-30T21:58:52.384Z,18.79
2022-10-30T22:01:22.175Z,18.73
2022-10-30T22:03:49.595Z,18.62
2022-10-30T22:06:18.784Z,18.60
2022-10-30T22:08:47.491Z,18.64
2022-10-30T22:11:14.684Z,18.60
2022-10-30T22:13:41.537Z,18.54
2022-10-30T22:16:11.339Z,18.52
2022-10-30T22:18:38.426Z,18.53
2022-10-30T22:21:07.690Z,18.52
2022-10-30T22:23:35.709Z,18.51
2022-10-30T22:26:04.568Z,18.48
2022-10-30T22:28:32.193Z,18.46
2022-10-30T22:31:07.352Z,18.51
2022-10-30T22:33:34.278Z,18.62
2022-10-30T22:36:16.478Z,18.71
2022-10-30T22:38:43.291Z,18.77
2022-10-30T22:41:12.302Z,18.79
2022-10-30T22:43:39.682Z,18.84
2022-10-30T22:46:06.310Z,18.95
2022-10-30T22:48:32.876Z,18.98
2022-10-30T22:51:01.026Z,18.96
2022-10-30T22:53:28.811Z,19.01
2022-10-30T22:55:55.318Z,19.03
2022-10-30T22:58:22.234Z,19.11
2022-10-30T23:00:49.077Z,19.18
2022-10-30T23:03:15.620Z,19.19
2022-10-30T23:05:42.733Z,19.25
2022-10-30T23:08:09.381Z,19.26
2022-10-30T23:10:35.875Z,19.26
2022-10-30T23:13:02.444Z,19.27
2022-10-30T23:15:28.914Z,19.28
2022-10-30T23:17:55.415Z,19.35
2022-10-30T23:20:21.917Z,19.35
2022-10-30T23:22:48.451Z,19.34
2022-10-30T23:25:14.967Z,19.45
2022-10-30T23:27:41.545Z,19.43
2022-10-30T23:30:08.907Z,19.50
2022-10-30T23:32:35.401Z,19.44
2022-10-30T23:35:01.894Z,19.41
2022-10-30T23:37:28.457Z,19.49
2022-10-30T23:39:55.230Z,19.52
2022-10-30T23:42:22.134Z,19.54
2022-10-30T23:44:48.659Z,19.65
2022-10-30T23:47:15.272Z,19.53
2022-10-30T23:49:41.760Z,19.46
2022-10-30T23:52:08.246Z,19.36
2022-10-30T23:54:34.751Z,19.44
2022-10-30T23:57:01.240Z,19.39
2022-10-30T23:59:27.758Z,19.28
